Buena Esperanza, Argentina
Current Conditions -  °F | °C
As of 6:00 AM on Friday 31 Oct 2014 (Local Time) from SAOC Reporting Station
Thunderstorm Thunderstorm  
Wind Chill: 57°   Ceiling: 5000
Heat Index: 57°   Visibility: 2.5mi
Dew Point: 55°   Wind: 6mph
Humidity: 94%   Direction: 50°NE
Pressure: 29.88"   Gusts: NA
Location:  34.75°S, 65.25°W
Report Text: SAOC 310900Z 05005KT 4000 TSRA FEW012FEW040CB OVC050 14/13 Q1012
Loading
Personal Weather Stations






























Interactive Weather Map
Tropical Storm Tracking
New forecast layout! Learn more

10-Day Weather Forecast

Advertisements
Track Severe Weather on mobile